createdAt,value
2023-05-24T00:04:50.164Z,23.7
2023-05-24T00:09:50.119Z,23.7
2023-05-24T00:14:53.182Z,23.7
2023-05-24T00:19:53.344Z,23.7
2023-05-24T00:24:54.408Z,23.7
2023-05-24T00:29:54.792Z,23.7
2023-05-24T00:34:57.693Z,23.7
2023-05-24T00:40:00.397Z,23.7
2023-05-24T00:45:00.314Z,23.7
2023-05-24T00:50:00.542Z,23.6
2023-05-24T00:55:01.192Z,23.6
2023-05-24T01:00:04.140Z,23.7
2023-05-24T01:05:06.773Z,23.6
2023-05-24T01:10:09.562Z,23.6
2023-05-24T01:15:08.356Z,23.6
2023-05-24T01:20:09.308Z,23.6
2023-05-24T01:25:12.346Z,23.6
2023-05-24T01:30:12.870Z,23.5
2023-05-24T01:35:15.926Z,23.6
2023-05-24T01:40:16.046Z,23.6
2023-05-24T01:45:19.303Z,23.6
2023-05-24T01:50:22.944Z,23.6
2023-05-24T01:55:22.052Z,23.5
2023-05-24T02:00:25.200Z,23.6
2023-05-24T02:05:25.404Z,23.5
2023-05-24T02:10:26.061Z,23.6
2023-05-24T02:15:26.598Z,23.5
2023-05-24T02:20:27.247Z,23.5
2023-05-24T02:25:27.485Z,23.5
2023-05-24T02:30:28.106Z,23.5
2023-05-24T02:35:31.037Z,23.5
2023-05-24T02:40:31.086Z,23.5
2023-05-24T02:45:31.758Z,23.4
2023-05-24T02:50:35.101Z,23.5
2023-05-24T02:55:37.801Z,23.5
2023-05-24T03:00:40.673Z,23.5
2023-05-24T03:05:40.788Z,23.5
2023-05-24T03:10:44.059Z,23.5
2023-05-24T03:15:44.573Z,23.4
2023-05-24T03:20:45.178Z,23.4
2023-05-24T03:25:48.334Z,23.5
2023-05-24T03:30:48.493Z,23.5
2023-05-24T03:35:48.852Z,23.4
2023-05-24T03:40:49.285Z,23.5
2023-05-24T03:45:52.638Z,23.5
2023-05-24T03:50:52.713Z,23.5
2023-05-24T03:55:53.330Z,23.5
2023-05-24T04:00:54.655Z,23.5
2023-05-24T04:05:57.741Z,23.6
2023-05-24T04:10:57.950Z,23.5
2023-05-24T04:16:01.183Z,23.6
2023-05-24T04:21:01.426Z,23.6
2023-05-24T04:26:01.975Z,23.6
2023-05-24T04:31:05.620Z,23.7
2023-05-24T04:36:05.927Z,23.7
2023-05-24T04:41:06.482Z,23.7
2023-05-24T04:46:08.920Z,23.8
2023-05-24T04:51:07.594Z,23.8
2023-05-24T04:56:08.183Z,23.7
2023-05-24T05:01:08.910Z,23.8
2023-05-24T05:06:09.526Z,23.9
2023-05-24T05:11:09.965Z,23.9
2023-05-24T05:16:10.573Z,23.8
2023-05-24T05:21:11.133Z,23.9
2023-05-24T05:26:11.380Z,23.9
2023-05-24T05:31:11.684Z,23.9
2023-05-24T05:36:12.368Z,24
2023-05-24T05:41:12.591Z,24
2023-05-24T05:46:15.842Z,24
2023-05-24T05:51:18.668Z,23.9
2023-05-24T05:56:18.904Z,24
2023-05-24T06:01:19.601Z,24
2023-05-24T06:06:22.716Z,24.1
2023-05-24T06:11:22.805Z,24
2023-05-24T06:16:26.295Z,24.1
2023-05-24T06:21:28.918Z,24.1
2023-05-24T06:26:31.739Z,24.1
2023-05-24T06:31:31.568Z,24.1
2023-05-24T06:36:31.986Z,24.1
2023-05-24T06:41:32.429Z,24.1
2023-05-24T06:46:33.154Z,24.1
2023-05-24T06:51:33.628Z,24.2
2023-05-24T06:56:33.893Z,24.2
2023-05-24T07:01:34.493Z,24.2
2023-05-24T07:06:34.995Z,24.2
2023-05-24T07:11:35.446Z,24.2
2023-05-24T07:16:36.607Z,24.2
2023-05-24T07:21:36.994Z,24.2
2023-05-24T07:26:37.310Z,24.2
2023-05-24T07:31:40.632Z,24.2
2023-05-24T07:36:40.631Z,24.3
2023-05-24T07:41:41.803Z,24.3
2023-05-24T07:46:42.367Z,24.3
2023-05-24T07:51:44.859Z,24.3
2023-05-24T07:56:44.762Z,24.2
2023-05-24T08:01:45.124Z,24.3
2023-05-24T08:06:45.804Z,24.3
2023-05-24T08:11:46.565Z,24.3
2023-05-24T08:16:47.097Z,24.3
2023-05-24T08:21:47.709Z,24.3
2023-05-24T08:26:50.873Z,24.3
2023-05-24T08:31:51.655Z,24.3
2023-05-24T08:36:51.863Z,24.3
2023-05-24T08:42:01.284Z,24.3
2023-05-24T08:46:52.868Z,24.3
2023-05-24T08:52:05.206Z,24.3
2023-05-24T08:57:04.232Z,24.3
2023-05-24T09:02:07.526Z,24.3
2023-05-24T09:07:07.430Z,24.3
2023-05-24T09:12:08.136Z,24.4
2023-05-24T09:17:08.442Z,24.4
2023-05-24T09:22:11.596Z,24.3
2023-05-24T09:27:11.699Z,24.3
2023-05-24T09:32:12.278Z,24.4
2023-05-24T09:37:18.305Z,24.4
2023-05-24T09:42:17.822Z,24.3
2023-05-24T09:47:18.439Z,24.4
2023-05-24T09:52:19.143Z,24.4
2023-05-24T09:57:19.714Z,24.4
2023-05-24T10:02:20.246Z,24.4
2023-05-24T10:07:20.203Z,24.4
2023-05-24T10:12:20.628Z,24.5
2023-05-24T10:17:24.160Z,24.5
2023-05-24T10:22:23.682Z,24.4
2023-05-24T10:27:24.250Z,24.5
2023-05-24T10:32:24.644Z,24.4
2023-05-24T10:37:27.961Z,24.5
2023-05-24T10:42:27.749Z,24.5
2023-05-24T10:52:37.844Z,24.5
2023-05-24T10:57:38.143Z,24.5
2023-05-24T11:02:38.829Z,24.4
2023-05-24T11:07:39.453Z,24.5
2023-05-24T11:12:39.692Z,24.5
2023-05-24T11:17:42.200Z,24.5
2023-05-24T11:22:40.848Z,24.5
2023-05-24T11:27:41.576Z,24.5
2023-05-24T11:32:43.693Z,24.5
2023-05-24T11:37:46.541Z,24.5
2023-05-24T11:42:44.431Z,24.5
2023-05-24T11:47:44.818Z,24.5
2023-05-24T11:52:45.218Z,24.5
2023-05-24T11:57:45.861Z,24.6
2023-05-24T12:02:49.394Z,24.5
2023-05-24T12:07:51.886Z,24.4
2023-05-24T12:12:52.314Z,24.6
2023-05-24T12:17:52.842Z,24.6
2023-05-24T12:22:56.009Z,24.6
2023-05-24T12:27:56.751Z,24.6
2023-05-24T12:32:57.811Z,24.6
2023-05-24T12:37:58.071Z,24.6
2023-05-24T12:42:58.545Z,24.6
2023-05-24T12:48:02.938Z,24.6
2023-05-24T12:53:02.507Z,24.6
2023-05-24T12:58:02.980Z,24.6
2023-05-24T13:03:03.474Z,24.6
2023-05-24T13:08:06.724Z,24.6
2023-05-24T13:13:06.784Z,24.6
2023-05-24T13:18:06.790Z,24.6
2023-05-24T13:23:07.221Z,24.7
2023-05-24T13:28:10.363Z,24.6
2023-05-24T13:33:10.445Z,24.7
2023-05-24T13:38:13.863Z,24.6
2023-05-24T13:43:13.949Z,24.6
2023-05-24T13:48:15.173Z,24.7
2023-05-24T13:53:15.431Z,24.7
2023-05-24T13:58:15.967Z,24.6
2023-05-24T14:03:16.389Z,24.7
2023-05-24T14:08:19.669Z,24.7
2023-05-24T14:18:19.838Z,24.8
2023-05-24T14:23:20.160Z,24.8
2023-05-24T14:28:20.723Z,24.8
2023-05-24T14:33:21.253Z,24.9
2023-05-24T14:38:21.531Z,24.9
2023-05-24T14:43:21.914Z,24.9
2023-05-24T14:48:22.467Z,24.9
2023-05-24T14:53:31.095Z,24.9
2023-05-24T14:58:30.233Z,24.9
2023-05-24T15:03:30.557Z,24.9
2023-05-24T15:08:30.818Z,24.9
2023-05-24T15:13:31.397Z,25
2023-05-24T15:18:31.582Z,24.9
2023-05-24T15:23:34.823Z,24.9
2023-05-24T15:28:34.890Z,25
2023-05-24T15:33:35.128Z,25
2023-05-24T15:38:35.601Z,25
2023-05-24T15:43:35.996Z,25
2023-05-24T15:48:36.654Z,25
2023-05-24T15:53:37.020Z,25
2023-05-24T15:58:38.217Z,25
2023-05-24T16:03:39.676Z,25
2023-05-24T16:08:45.337Z,25.1
2023-05-24T16:13:44.658Z,25
2023-05-24T16:18:45.199Z,25.1
2023-05-24T16:23:48.281Z,25.1
2023-05-24T16:28:48.288Z,25.1
2023-05-24T16:33:51.407Z,25.1
2023-05-24T16:38:51.257Z,25.1
2023-05-24T16:43:51.417Z,25.1
2023-05-24T16:48:51.824Z,25.1
2023-05-24T16:53:54.980Z,25.1
2023-05-24T16:58:55.069Z,25.1
2023-05-24T17:03:55.725Z,25.1
2023-05-24T17:08:56.088Z,25.1
2023-05-24T17:13:56.508Z,25.1
2023-05-24T17:18:59.729Z,25.1
2023-05-24T17:24:00.532Z,25.2
2023-05-24T17:29:00.940Z,25.1
2023-05-24T17:34:01.439Z,25.1
2023-05-24T17:39:01.911Z,25.2
2023-05-24T17:44:03.359Z,25.2
2023-05-24T17:49:05.437Z,25.2
2023-05-24T17:54:05.422Z,25.1
2023-05-24T17:59:06.782Z,25.2
2023-05-24T18:04:08.435Z,25.2
2023-05-24T18:09:07.569Z,25.2
2023-05-24T18:14:08.095Z,25.2
2023-05-24T18:19:08.612Z,25.2
2023-05-24T18:24:10.036Z,25.2
2023-05-24T18:29:11.101Z,25.1
2023-05-24T18:34:11.379Z,25.1
2023-05-24T18:39:11.771Z,25.1
2023-05-24T18:44:12.313Z,25
2023-05-24T18:49:12.834Z,25
2023-05-24T18:54:13.505Z,25
2023-05-24T18:59:13.819Z,25
2023-05-24T19:04:18.126Z,25
2023-05-24T19:09:21.714Z,25
2023-05-24T19:14:21.424Z,24.9
2023-05-24T19:19:22.023Z,25
2023-05-24T19:24:23.752Z,25
2023-05-24T19:29:23.983Z,25
2023-05-24T19:34:26.168Z,24.9
2023-05-24T19:39:26.448Z,24.9
2023-05-24T19:44:26.848Z,24.9
2023-05-24T19:49:36.048Z,25
2023-05-24T19:54:35.271Z,25
2023-05-24T19:59:36.407Z,24.9
2023-05-24T20:04:36.458Z,24.9
2023-05-24T20:09:37.010Z,24.8
2023-05-24T20:14:37.630Z,24.9
2023-05-24T20:19:38.143Z,24.9
2023-05-24T20:24:38.600Z,24.9
2023-05-24T20:29:41.926Z,24.9
2023-05-24T20:34:44.435Z,24.9
2023-05-24T20:39:44.574Z,24.9
2023-05-24T20:44:47.934Z,24.9
2023-05-24T20:49:47.911Z,24.8
2023-05-24T20:54:48.473Z,24.9
2023-05-24T20:59:51.837Z,24.8
2023-05-24T21:04:52.620Z,24.8
2023-05-24T21:09:55.390Z,24.9
2023-05-24T21:15:03.737Z,24.9
2023-05-24T21:20:03.957Z,24.8
2023-05-24T21:25:04.233Z,24.8
2023-05-24T21:30:04.858Z,24.8
2023-05-24T21:35:05.284Z,24.8
2023-05-24T21:40:05.659Z,24.8
2023-05-24T21:45:09.011Z,24.8
2023-05-24T21:50:09.217Z,24.8
2023-05-24T21:55:09.715Z,24.7
2023-05-24T22:00:10.473Z,24.7
2023-05-24T22:05:10.772Z,24.7
2023-05-24T22:10:11.269Z,24.7
2023-05-24T22:15:12.326Z,24.7
2023-05-24T22:20:12.495Z,24.7
2023-05-24T22:25:12.870Z,24.7
2023-05-24T22:30:16.073Z,24.7
2023-05-24T22:35:16.559Z,24.7
2023-05-24T22:40:16.909Z,24.7
2023-05-24T22:45:18.457Z,24.6
2023-05-24T22:50:21.283Z,24.7
2023-05-24T22:55:21.312Z,24.7
2023-05-24T23:00:21.756Z,24.6
2023-05-24T23:05:22.373Z,24.7
2023-05-24T23:10:25.762Z,24.7
2023-05-24T23:15:26.674Z,24.7
2023-05-24T23:20:27.003Z,24.6
2023-05-24T23:25:30.264Z,24.7
2023-05-24T23:30:30.343Z,24.7
2023-05-24T23:35:32.641Z,24.6
2023-05-24T23:40:33.649Z,24.6
2023-05-24T23:45:33.928Z,24.6
2023-05-24T23:50:43.024Z,24.6
2023-05-24T23:55:34.506Z,24.6
